Terminal Aerodrome Forecast
Issued by NWS Cleveland, OH

Home | Current Version | Previous Version | Text Only | Print | Product List | Glossary On
Versions: 1 2 3 4 5 6 7 8 9 10 11 12 13 14 15 16 17 18 19 20 21 22 23 24 25 26 27 28 29 30 31 32 33
230
FTUS41 KCLE 141104 AAC
TAFCLE
TAF AMD
KCLE 141104Z 1411/1512 35012KT P6SM VCSH SCT015 OVC025
     FM141900 30010KT P6SM SCT015 OVC035=

USA.gov is the U.S. government's official web portal to all federal, state and local government web resources and services.